createdAt,value
2023-03-23T15:59:55.781Z,1.10
2023-03-23T16:02:25.330Z,1.20
2023-03-23T16:04:52.438Z,1.30
2023-03-23T16:07:22.427Z,1.25
2023-03-23T16:09:49.072Z,1.52
2023-03-23T16:12:15.724Z,1.27
2023-03-23T16:14:42.411Z,1.45
2023-03-23T16:17:15.870Z,1.63
2023-03-23T16:19:42.533Z,1.63
2023-03-23T16:22:09.916Z,1.75
2023-03-23T16:24:36.663Z,1.33
2023-03-23T16:27:03.283Z,1.15
2023-03-23T16:32:01.440Z,1.40
2023-03-23T16:34:30.155Z,1.20
2023-03-23T16:36:56.822Z,1.30
2023-03-23T16:39:23.751Z,1.58
2023-03-23T16:41:50.651Z,1.38
2023-03-23T16:44:17.360Z,1.90
2023-03-23T16:46:44.345Z,2.35
2023-03-23T16:49:11.128Z,2.10
2023-03-23T16:51:37.930Z,2.78
2023-03-23T16:54:04.699Z,3.50
2023-03-23T16:56:31.389Z,2.90
2023-03-23T16:58:58.095Z,2.50
2023-03-23T17:01:24.750Z,2.00
2023-03-23T17:03:51.525Z,1.70
2023-03-23T17:06:18.213Z,2.17
2023-03-23T17:08:44.866Z,1.90
2023-03-23T17:11:11.577Z,2.60
2023-03-23T17:13:38.478Z,1.88
2023-03-23T17:16:05.760Z,2.22
2023-03-23T17:18:32.500Z,2.10
2023-03-23T17:20:59.179Z,2.00
2023-03-23T17:23:26.177Z,1.90
2023-03-23T17:25:53.913Z,2.28
2023-03-23T17:28:21.123Z,2.50
2023-03-23T17:30:48.516Z,1.85
2023-03-23T17:33:15.414Z,1.88
2023-03-23T17:35:42.698Z,2.10
2023-03-23T17:38:09.763Z,1.85
2023-03-23T17:40:36.697Z,2.13
2023-03-23T17:43:04.085Z,1.42
2023-03-23T17:45:30.974Z,1.90
2023-03-23T17:47:57.666Z,1.63
2023-03-23T17:50:24.416Z,1.75
2023-03-23T17:52:51.135Z,1.95
2023-03-23T17:55:17.776Z,2.55
2023-03-23T17:57:44.976Z,2.90
2023-03-23T18:00:13.296Z,2.63
2023-03-23T18:02:40.031Z,2.42
2023-03-23T18:05:09.386Z,2.08
2023-03-23T18:07:37.022Z,2.10
2023-03-23T18:10:11.829Z,2.30
2023-03-23T18:12:40.149Z,2.42
2023-03-23T18:15:07.387Z,2.05
2023-03-23T18:17:34.125Z,2.22
2023-03-23T18:20:01.420Z,1.85
2023-03-23T18:22:28.065Z,1.63
2023-03-23T18:24:55.399Z,2.08
2023-03-23T18:27:22.015Z,1.63
2023-03-23T18:29:48.666Z,2.08
2023-03-23T18:32:17.119Z,2.03
2023-03-23T18:34:43.906Z,1.85
2023-03-23T18:37:10.869Z,2.40
2023-03-23T18:39:38.539Z,2.38
2023-03-23T18:42:06.294Z,2.22
2023-03-23T18:44:33.313Z,2.03
2023-03-23T18:47:00.597Z,2.22
2023-03-23T18:49:29.026Z,1.70
2023-03-23T18:51:56.109Z,2.10
2023-03-23T18:54:22.755Z,1.98
2023-03-23T18:56:49.494Z,1.63
2023-03-23T18:59:16.311Z,1.80
2023-03-23T19:01:43.417Z,2.00
2023-03-23T19:04:14.602Z,2.05
2023-03-23T19:06:41.413Z,2.40
2023-03-23T19:09:08.056Z,2.78
2023-03-23T19:11:34.685Z,2.40
2023-03-23T19:14:03.399Z,2.72
2023-03-23T19:16:35.948Z,2.17
2023-03-23T19:19:05.347Z,1.85
2023-03-23T19:21:32.597Z,2.08
2023-03-23T19:24:00.893Z,1.85
2023-03-23T19:26:36.895Z,1.88
2023-03-23T19:29:26.150Z,1.88
2023-03-23T19:31:55.556Z,2.00
2023-03-23T19:34:23.796Z,1.85
2023-03-23T19:36:55.237Z,1.55
2023-03-23T19:39:30.186Z,1.77
2023-03-23T19:41:56.858Z,1.80
2023-03-23T19:44:23.545Z,2.08
2023-03-23T19:46:50.718Z,2.50
2023-03-23T19:49:17.892Z,2.78
2023-03-23T19:51:44.963Z,1.55
2023-03-23T19:54:13.200Z,1.98
2023-03-23T19:56:40.164Z,2.05
2023-03-23T19:59:10.579Z,1.80
2023-03-23T20:01:37.786Z,2.10
2023-03-23T20:04:05.545Z,1.60
2023-03-23T20:06:34.047Z,1.98
2023-03-23T20:09:01.351Z,1.55
2023-03-23T20:11:29.671Z,1.65
2023-03-23T20:13:57.699Z,1.80
2023-03-23T20:16:25.350Z,1.63
2023-03-23T20:18:53.418Z,1.88
2023-03-23T20:21:25.401Z,1.65
2023-03-23T20:23:55.917Z,1.70
2023-03-23T20:26:28.814Z,1.80
2023-03-23T20:28:56.049Z,1.83
2023-03-23T20:31:26.749Z,2.03
2023-03-23T20:34:02.051Z,1.50
2023-03-23T20:36:35.167Z,1.65
2023-03-23T20:39:08.236Z,1.58
2023-03-23T20:41:38.841Z,1.60
2023-03-23T20:44:08.032Z,1.48
2023-03-23T20:46:35.348Z,1.60
2023-03-23T20:49:02.565Z,1.77
2023-03-23T20:51:29.208Z,2.22
2023-03-23T20:53:55.852Z,1.45
2023-03-23T20:56:22.510Z,1.80
2023-03-23T20:58:49.242Z,1.90
2023-03-23T21:01:16.009Z,1.65
2023-03-23T21:03:44.026Z,1.50
2023-03-23T21:06:10.855Z,1.70
2023-03-23T21:08:39.516Z,1.70
2023-03-23T21:11:09.246Z,1.55
2023-03-23T21:13:36.838Z,1.83
2023-03-23T21:16:04.293Z,2.10
2023-03-23T21:18:31.757Z,1.80
2023-03-23T21:21:00.285Z,2.40
2023-03-23T21:23:30.474Z,1.50
2023-03-23T21:26:02.764Z,1.98
2023-03-23T21:28:30.765Z,1.75
2023-03-23T21:31:06.042Z,2.13
2023-03-23T21:33:33.183Z,2.10
2023-03-23T21:36:01.002Z,1.90
2023-03-23T21:38:28.622Z,1.50
2023-03-23T21:40:58.523Z,1.98
2023-03-23T21:43:29.794Z,1.90
2023-03-23T21:45:58.951Z,2.00
2023-03-23T21:48:27.543Z,2.05
2023-03-23T21:50:54.884Z,2.13
2023-03-23T21:53:23.223Z,1.80
2023-03-23T21:55:54.623Z,1.90
2023-03-23T21:58:24.213Z,2.60
2023-03-23T22:00:54.119Z,2.10
2023-03-23T22:03:23.570Z,1.98
2023-03-23T22:05:54.190Z,1.73
2023-03-23T22:08:22.617Z,1.70
2023-03-23T22:11:01.387Z,2.25
2023-03-23T22:13:31.169Z,2.30
2023-03-23T22:15:59.384Z,2.47
2023-03-23T22:18:26.660Z,2.50
2023-03-23T22:20:53.822Z,3.10
2023-03-23T22:23:20.774Z,2.78
2023-03-23T22:25:47.569Z,2.80
2023-03-23T22:28:14.716Z,3.45
2023-03-23T22:30:41.327Z,3.47
2023-03-23T22:33:08.257Z,2.60
2023-03-23T22:35:35.040Z,3.00
2023-03-23T22:38:03.768Z,3.00
2023-03-23T22:40:32.942Z,3.25
2023-03-23T22:43:06.718Z,2.97
2023-03-23T22:45:35.128Z,2.78
2023-03-23T22:48:08.627Z,2.92
2023-03-23T22:50:39.350Z,2.88
2023-03-23T22:53:07.836Z,2.78
2023-03-23T22:55:36.701Z,2.85
2023-03-23T22:58:05.089Z,2.83
2023-03-23T23:01:25.745Z,3.20
2023-03-23T23:04:29.804Z,3.83
2023-03-23T23:07:11.999Z,3.83
2023-03-23T23:09:45.560Z,3.63
2023-03-23T23:12:15.566Z,3.60
2023-03-23T23:14:44.347Z,3.55
2023-03-23T23:17:13.006Z,3.65
2023-03-23T23:19:41.059Z,3.10
2023-03-23T23:22:31.987Z,3.00
2023-03-23T23:25:00.420Z,3.28
2023-03-23T23:27:45.951Z,3.50
2023-03-23T23:30:37.967Z,3.63
2023-03-23T23:35:37.268Z,3.80
2023-03-23T23:38:15.994Z,3.65
2023-03-23T23:40:46.920Z,3.00
2023-03-23T23:43:17.350Z,3.35
2023-03-23T23:45:45.833Z,3.20
2023-03-23T23:48:14.484Z,3.00
2023-03-23T23:50:43.423Z,2.65
2023-03-23T23:53:35.527Z,3.10
2023-03-23T23:56:08.299Z,3.50
2023-03-23T23:58:36.030Z,2.85
